createdAt,value
2022-12-03T00:04:26.927Z,9.20
2022-12-03T00:08:35.452Z,10.23
2022-12-03T00:17:01.156Z,7.67
2022-12-03T00:21:09.786Z,10.20
2022-12-03T00:25:18.855Z,7.03
2022-12-03T00:29:27.509Z,9.07
2022-12-03T00:33:36.063Z,9.87
2022-12-03T00:37:44.636Z,8.87
2022-12-03T00:41:54.922Z,10.17
2022-12-03T00:46:03.540Z,9.83
2022-12-03T00:50:24.259Z,8.93
2022-12-03T00:54:32.970Z,11.00
2022-12-03T00:58:41.573Z,8.43
2022-12-03T01:02:50.204Z,10.70
2022-12-03T01:06:58.831Z,9.23
2022-12-03T01:11:09.098Z,8.00
2022-12-03T01:15:17.601Z,9.43
2022-12-03T01:19:26.158Z,8.20
2022-12-03T01:23:34.779Z,12.23
2022-12-03T01:27:43.817Z,9.67
2022-12-03T01:36:24.119Z,8.58
2022-12-03T01:40:32.745Z,10.17
2022-12-03T01:44:41.815Z,8.60
2022-12-03T01:48:53.331Z,7.33
2022-12-03T01:53:04.518Z,9.40
2022-12-03T01:57:42.385Z,9.37
2022-12-03T02:02:18.103Z,9.63
2022-12-03T02:06:46.334Z,9.73
2022-12-03T02:10:55.373Z,9.20
2022-12-03T02:15:05.073Z,10.50
2022-12-03T02:19:19.657Z,9.53
2022-12-03T02:23:37.272Z,10.87
2022-12-03T02:27:47.086Z,11.30
2022-12-03T02:31:55.740Z,10.93
2022-12-03T02:36:24.111Z,12.37
2022-12-03T02:40:34.244Z,11.53
2022-12-03T02:44:42.904Z,11.67
2022-12-03T02:48:51.634Z,9.63
2022-12-03T02:53:03.091Z,11.57
2022-12-03T02:57:12.068Z,10.90
2022-12-03T03:01:20.749Z,12.10
2022-12-03T03:05:29.886Z,9.80
2022-12-03T03:09:38.671Z,9.53
2022-12-03T03:13:47.671Z,10.47
2022-12-03T03:17:56.776Z,11.50
2022-12-03T03:22:05.687Z,10.80
2022-12-03T03:26:16.514Z,9.93
2022-12-03T03:30:25.199Z,11.10
2022-12-03T03:34:53.714Z,11.30
2022-12-03T03:39:02.601Z,10.03
2022-12-03T03:43:11.663Z,9.90
2022-12-03T03:47:20.739Z,11.27
2022-12-03T03:51:29.534Z,10.17
2022-12-03T03:55:38.674Z,11.23
2022-12-03T03:59:47.919Z,10.50
2022-12-03T04:03:57.417Z,11.70
2022-12-03T04:08:06.175Z,10.27
2022-12-03T04:12:32.739Z,11.50
2022-12-03T04:16:41.415Z,11.10
2022-12-03T04:20:50.003Z,10.93
2022-12-03T04:25:35.906Z,10.50
2022-12-03T04:29:44.535Z,9.73
2022-12-03T04:34:11.293Z,11.03
2022-12-03T04:38:19.840Z,12.73
2022-12-03T04:42:28.443Z,10.23
2022-12-03T04:46:37.071Z,8.40
2022-12-03T04:50:45.599Z,10.87
2022-12-03T04:54:54.498Z,9.30
2022-12-03T04:59:03.265Z,7.80
2022-12-03T05:03:11.897Z,9.13
2022-12-03T05:07:20.528Z,10.53
2022-12-03T05:11:29.065Z,10.87
2022-12-03T05:15:57.032Z,10.70
2022-12-03T05:20:46.971Z,11.43
2022-12-03T05:24:53.494Z,9.60
2022-12-03T05:29:02.322Z,11.30
2022-12-03T05:33:10.969Z,10.10
2022-12-03T05:37:19.598Z,9.43
2022-12-03T05:41:46.046Z,9.80
2022-12-03T05:45:54.753Z,11.13
2022-12-03T05:50:03.404Z,8.40
2022-12-03T05:54:11.967Z,8.60
2022-12-03T05:58:20.662Z,9.43
2022-12-03T06:02:29.554Z,11.57
2022-12-03T06:06:38.226Z,8.97
2022-12-03T06:11:06.312Z,10.50
2022-12-03T06:15:38.799Z,9.90
2022-12-03T06:19:44.663Z,9.93
2022-12-03T06:23:53.189Z,9.20
2022-12-03T06:28:01.819Z,9.73
2022-12-03T06:32:10.652Z,9.97
2022-12-03T06:36:23.012Z,10.13
2022-12-03T06:40:29.547Z,10.87
2022-12-03T06:44:57.536Z,10.97
2022-12-03T06:49:06.362Z,8.77
2022-12-03T06:53:15.094Z,7.57
2022-12-03T06:57:23.690Z,10.40
2022-12-03T07:01:32.352Z,10.33
2022-12-03T07:06:00.293Z,12.17
2022-12-03T07:10:09.805Z,11.03
2022-12-03T07:14:18.411Z,9.67
2022-12-03T07:18:27.046Z,11.80
2022-12-03T07:22:55.024Z,9.33
2022-12-03T07:27:03.550Z,11.13
2022-12-03T07:31:12.256Z,10.30
2022-12-03T07:35:21.725Z,11.90
2022-12-03T07:39:49.709Z,10.97
2022-12-03T07:43:58.271Z,9.27
2022-12-03T07:48:07.137Z,10.40
2022-12-03T07:52:15.776Z,10.80
2022-12-03T07:56:24.359Z,9.07
2022-12-03T08:00:33.072Z,11.77
2022-12-03T08:04:41.686Z,10.40
2022-12-03T08:08:50.418Z,9.70
2022-12-03T08:13:00.788Z,11.10
2022-12-03T08:17:17.930Z,9.73
2022-12-03T08:21:29.513Z,10.43
2022-12-03T08:25:38.860Z,10.37
2022-12-03T08:29:47.828Z,8.87
2022-12-03T08:34:19.975Z,9.20
2022-12-03T08:38:40.544Z,11.43
2022-12-03T08:42:49.520Z,10.87
2022-12-03T08:47:13.115Z,9.97
2022-12-03T08:51:26.229Z,9.80
2022-12-03T08:55:37.280Z,9.97
2022-12-03T08:59:46.021Z,10.63
2022-12-03T09:03:55.965Z,10.50
2022-12-03T09:08:05.203Z,11.20
2022-12-03T09:12:13.892Z,10.57
2022-12-03T09:16:22.390Z,11.90
2022-12-03T09:20:31.140Z,11.67
2022-12-03T09:24:39.630Z,11.57
2022-12-03T09:28:48.297Z,9.90
2022-12-03T09:32:56.875Z,11.10
2022-12-03T09:37:05.420Z,14.70
2022-12-03T09:41:14.182Z,12.50
2022-12-03T09:45:23.557Z,10.30
2022-12-03T09:49:33.370Z,10.77
2022-12-03T09:53:42.265Z,11.30
2022-12-03T09:57:52.511Z,12.80
2022-12-03T10:02:02.088Z,12.23
2022-12-03T10:06:13.722Z,11.73
2022-12-03T10:10:25.334Z,10.23
2022-12-03T10:14:33.860Z,12.50
2022-12-03T10:18:45.562Z,11.40
2022-12-03T10:22:54.189Z,12.53
2022-12-03T10:27:05.788Z,11.90
2022-12-03T10:31:15.519Z,15.90
2022-12-03T10:35:27.094Z,31.20
2022-12-03T10:39:56.756Z,15.63
2022-12-03T10:44:14.299Z,17.50
2022-12-03T10:48:30.963Z,15.00
2022-12-03T10:52:39.966Z,12.93
2022-12-03T10:56:50.426Z,15.17
2022-12-03T11:01:01.492Z,13.70
2022-12-03T11:05:16.903Z,14.77
2022-12-03T11:09:28.565Z,12.50
2022-12-03T11:13:40.197Z,12.80
2022-12-03T11:17:56.198Z,13.07
2022-12-03T11:22:10.973Z,14.50
2022-12-03T11:26:31.682Z,13.10
2022-12-03T11:30:56.705Z,14.33
2022-12-03T11:35:13.978Z,12.83
2022-12-03T11:39:25.610Z,14.17
2022-12-03T11:43:56.724Z,14.10
2022-12-03T11:48:14.528Z,13.90
2022-12-03T11:52:29.203Z,20.10
2022-12-03T11:56:57.282Z,12.27
2022-12-03T12:01:07.910Z,13.20
2022-12-03T12:05:19.147Z,12.83
2022-12-03T12:09:47.683Z,13.90
2022-12-03T12:18:39.026Z,14.03
2022-12-03T12:22:47.712Z,14.63
2022-12-03T12:26:57.842Z,14.57
2022-12-03T12:31:12.188Z,12.17
2022-12-03T12:35:28.907Z,13.43
2022-12-03T12:39:38.816Z,13.37
2022-12-03T12:43:47.545Z,13.30
2022-12-03T12:48:17.375Z,12.67
2022-12-03T12:52:26.100Z,13.53
2022-12-03T12:56:34.738Z,15.00
2022-12-03T13:00:43.504Z,13.60
2022-12-03T13:05:12.881Z,12.50
2022-12-03T13:09:24.481Z,12.77
2022-12-03T13:13:52.614Z,12.67
2022-12-03T13:18:27.828Z,11.55
2022-12-03T13:22:36.654Z,12.10
2022-12-03T13:26:45.317Z,13.73
2022-12-03T13:30:53.966Z,13.67
2022-12-03T13:35:16.328Z,13.13
2022-12-03T13:39:36.867Z,11.87
2022-12-03T13:43:45.500Z,11.90
2022-12-03T13:48:00.435Z,13.17
2022-12-03T13:52:29.991Z,14.80
2022-12-03T13:56:38.618Z,12.50
2022-12-03T14:01:06.587Z,10.97
2022-12-03T14:05:15.640Z,13.77
2022-12-03T14:09:24.173Z,15.20
2022-12-03T14:13:32.797Z,14.07
2022-12-03T14:17:41.425Z,12.53
2022-12-03T14:21:49.992Z,15.33
2022-12-03T14:25:58.544Z,14.63
2022-12-03T14:30:08.578Z,13.80
2022-12-03T14:34:25.565Z,14.50
2022-12-03T14:38:34.192Z,12.97
2022-12-03T14:42:42.821Z,12.70
2022-12-03T14:46:56.764Z,14.87
2022-12-03T14:51:02.434Z,14.30
2022-12-03T14:55:11.261Z,15.13
2022-12-03T14:59:23.138Z,12.93
2022-12-03T15:03:30.062Z,12.30
2022-12-03T15:07:39.467Z,11.60
2022-12-03T15:12:08.607Z,12.63
2022-12-03T15:16:17.312Z,12.47
2022-12-03T15:20:25.929Z,15.20
2022-12-03T15:24:34.607Z,14.97
2022-12-03T15:28:48.029Z,11.63
2022-12-03T15:32:53.706Z,13.10
2022-12-03T15:37:02.455Z,11.47
2022-12-03T15:41:30.627Z,13.70
2022-12-03T15:45:39.136Z,12.30
2022-12-03T15:49:48.803Z,11.97
2022-12-03T15:53:57.433Z,13.73
2022-12-03T15:58:25.317Z,14.80
2022-12-03T16:02:35.493Z,13.30
2022-12-03T16:06:44.420Z,13.13
2022-12-03T16:10:53.108Z,12.03
2022-12-03T16:15:01.671Z,13.17
2022-12-03T16:19:10.382Z,11.07
2022-12-03T16:23:19.179Z,10.80
2022-12-03T16:27:27.722Z,13.17
2022-12-03T16:31:36.362Z,9.97
2022-12-03T16:35:44.929Z,12.43
2022-12-03T16:39:53.796Z,11.73
2022-12-03T16:44:04.368Z,12.33
2022-12-03T16:48:14.412Z,11.80
2022-12-03T16:52:23.371Z,11.90
2022-12-03T16:56:31.921Z,16.20
2022-12-03T17:00:40.523Z,13.90
2022-12-03T17:04:49.103Z,11.50
2022-12-03T17:08:57.666Z,11.93
2022-12-03T17:13:09.819Z,11.20
2022-12-03T17:17:17.353Z,11.53
2022-12-03T17:21:26.703Z,10.27
2022-12-03T17:25:36.288Z,11.90
2022-12-03T17:29:44.850Z,12.80
2022-12-03T17:33:55.052Z,11.47
2022-12-03T17:38:03.702Z,7.50
2022-12-03T17:42:12.342Z,11.40
2022-12-03T17:46:21.307Z,12.27
2022-12-03T17:50:30.065Z,9.80
2022-12-03T17:55:08.370Z,11.67
2022-12-03T17:58:48.959Z,12.27
2022-12-03T18:02:57.691Z,14.60
2022-12-03T18:07:06.318Z,14.40
2022-12-03T18:11:14.947Z,13.10
2022-12-03T18:15:23.691Z,11.90
2022-12-03T18:19:32.306Z,10.00
2022-12-03T18:23:41.131Z,13.10
2022-12-03T18:27:49.769Z,12.73
2022-12-03T18:31:59.376Z,13.23
2022-12-03T18:36:14.893Z,12.60
2022-12-03T18:40:23.856Z,13.23
2022-12-03T18:44:32.425Z,10.13
2022-12-03T18:48:42.231Z,11.33
2022-12-03T18:52:50.864Z,13.53
2022-12-03T18:56:59.589Z,14.70
2022-12-03T19:01:10.221Z,14.20
2022-12-03T19:05:18.997Z,12.70
2022-12-03T19:09:27.728Z,13.87
2022-12-03T19:13:36.458Z,14.70
2022-12-03T19:17:50.352Z,11.30
2022-12-03T19:21:58.908Z,12.77
2022-12-03T19:26:09.426Z,12.70
2022-12-03T19:30:18.332Z,14.97
2022-12-03T19:34:27.386Z,13.33
2022-12-03T19:38:36.526Z,12.83
2022-12-03T19:42:45.362Z,15.30
2022-12-03T19:46:54.192Z,15.50
2022-12-03T19:51:26.568Z,14.10
2022-12-03T19:55:13.907Z,14.10
2022-12-03T19:59:22.537Z,13.53
2022-12-03T20:03:31.267Z,13.43
2022-12-03T20:07:39.826Z,11.90
2022-12-03T20:11:51.290Z,13.10
2022-12-03T20:16:04.974Z,15.17
2022-12-03T20:20:13.706Z,12.83
2022-12-03T20:24:22.367Z,15.00
2022-12-03T20:28:30.959Z,11.50
2022-12-03T20:32:45.123Z,14.70
2022-12-03T20:36:49.819Z,12.53
2022-12-03T20:41:02.889Z,13.30
2022-12-03T20:45:12.250Z,13.00
2022-12-03T20:49:40.486Z,12.90
2022-12-03T20:53:49.422Z,13.60
2022-12-03T20:57:58.051Z,11.67
2022-12-03T21:02:06.804Z,12.87
2022-12-03T21:06:16.209Z,13.10
2022-12-03T21:10:35.306Z,14.33
2022-12-03T21:14:43.885Z,14.33
2022-12-03T21:18:52.664Z,13.57
2022-12-03T21:23:01.191Z,14.07
2022-12-03T21:27:09.800Z,13.17
2022-12-03T21:31:21.244Z,13.90
2022-12-03T21:35:30.251Z,15.37
2022-12-03T21:39:58.134Z,12.60
2022-12-03T21:44:07.001Z,13.53
2022-12-03T21:48:16.763Z,13.20
2022-12-03T21:52:25.348Z,12.97
2022-12-03T21:56:33.978Z,14.27
2022-12-03T22:01:02.108Z,13.57
2022-12-03T22:05:12.161Z,14.30
2022-12-03T22:09:26.277Z,13.50
2022-12-03T22:13:31.020Z,12.60
2022-12-03T22:17:39.515Z,14.63
2022-12-03T22:21:48.277Z,12.80
2022-12-03T22:26:05.694Z,14.43
2022-12-03T22:30:14.588Z,13.60
2022-12-03T22:34:23.319Z,16.03
2022-12-03T22:38:32.624Z,18.17
2022-12-03T22:42:43.973Z,16.00
2022-12-03T22:46:51.521Z,15.73
2022-12-03T22:51:00.269Z,12.60
2022-12-03T22:55:28.749Z,14.13
2022-12-03T22:59:37.284Z,14.87
2022-12-03T23:03:47.864Z,15.03
2022-12-03T23:07:56.200Z,14.67
2022-12-03T23:12:24.252Z,13.17
2022-12-03T23:16:34.530Z,15.30
2022-12-03T23:20:46.015Z,17.27
2022-12-03T23:24:54.585Z,14.93
2022-12-03T23:29:03.132Z,12.90
2022-12-03T23:33:11.797Z,13.40
2022-12-03T23:37:20.426Z,15.30
2022-12-03T23:41:28.953Z,13.57
2022-12-03T23:45:37.545Z,13.43
2022-12-03T23:49:46.209Z,11.83
2022-12-03T23:53:56.453Z,14.70
2022-12-03T23:58:05.103Z,15.23
